sensor_id;sensor_type;location;lat;lon;timestamp;P1;durP1;ratioP1;P2;durP2;ratioP2
27265;SDS011;14766;51.380;13.762;2023-04-28T00:01:52;6.28;;;4.05;;
27265;SDS011;14766;51.380;13.762;2023-04-28T00:04:20;6.43;;;4.43;;
27265;SDS011;14766;51.380;13.762;2023-04-28T00:06:48;6.45;;;4.03;;
27265;SDS011;14766;51.380;13.762;2023-04-28T00:09:16;7.40;;;3.67;;
27265;SDS011;14766;51.380;13.762;2023-04-28T00:11:44;6.20;;;3.88;;
27265;SDS011;14766;51.380;13.762;2023-04-28T00:14:12;4.75;;;3.47;;
27265;SDS011;14766;51.380;13.762;2023-04-28T00:16:39;5.18;;;3.58;;
27265;SDS011;14766;51.380;13.762;2023-04-28T00:19:07;4.65;;;3.58;;
27265;SDS011;14766;51.380;13.762;2023-04-28T00:21:34;5.47;;;3.50;;
27265;SDS011;14766;51.380;13.762;2023-04-28T00:24:01;4.18;;;3.15;;
27265;SDS011;14766;51.380;13.762;2023-04-28T00:26:29;5.75;;;3.92;;
27265;SDS011;14766;51.380;13.762;2023-04-28T00:28:56;6.18;;;3.50;;
27265;SDS011;14766;51.380;13.762;2023-04-28T00:31:23;5.38;;;3.25;;
27265;SDS011;14766;51.380;13.762;2023-04-28T00:33:50;6.20;;;3.90;;
27265;SDS011;14766;51.380;13.762;2023-04-28T00:36:17;9.07;;;4.03;;
27265;SDS011;14766;51.380;13.762;2023-04-28T00:38:44;6.35;;;3.90;;
27265;SDS011;14766;51.380;13.762;2023-04-28T00:41:11;6.60;;;3.90;;
27265;SDS011;14766;51.380;13.762;2023-04-28T00:43:47;6.45;;;3.90;;
27265;SDS011;14766;51.380;13.762;2023-04-28T00:46:20;5.97;;;3.72;;
27265;SDS011;14766;51.380;13.762;2023-04-28T00:48:50;6.30;;;3.85;;
27265;SDS011;14766;51.380;13.762;2023-04-28T00:51:19;7.90;;;4.10;;
27265;SDS011;14766;51.380;13.762;2023-04-28T00:53:46;7.38;;;4.13;;
27265;SDS011;14766;51.380;13.762;2023-04-28T00:56:14;5.45;;;3.75;;
27265;SDS011;14766;51.380;13.762;2023-04-28T00:58:41;5.05;;;3.45;;
27265;SDS011;14766;51.380;13.762;2023-04-28T01:01:09;9.77;;;4.18;;
27265;SDS011;14766;51.380;13.762;2023-04-28T01:03:36;5.70;;;3.50;;
27265;SDS011;14766;51.380;13.762;2023-04-28T01:06:06;9.63;;;4.15;;
27265;SDS011;14766;51.380;13.762;2023-04-28T01:08:37;6.10;;;3.95;;
27265;SDS011;14766;51.380;13.762;2023-04-28T01:11:10;6.20;;;3.95;;
27265;SDS011;14766;51.380;13.762;2023-04-28T01:14:00;7.10;;;3.97;;
27265;SDS011;14766;51.380;13.762;2023-04-28T01:16:30;6.97;;;4.07;;
27265;SDS011;14766;51.380;13.762;2023-04-28T01:19:01;5.03;;;3.80;;
27265;SDS011;14766;51.380;13.762;2023-04-28T01:21:29;5.60;;;3.65;;
27265;SDS011;14766;51.380;13.762;2023-04-28T01:24:04;6.50;;;3.85;;
27265;SDS011;14766;51.380;13.762;2023-04-28T01:26:32;5.88;;;3.75;;
27265;SDS011;14766;51.380;13.762;2023-04-28T01:28:59;6.10;;;4.00;;
27265;SDS011;14766;51.380;13.762;2023-04-28T01:31:27;6.88;;;4.13;;
27265;SDS011;14766;51.380;13.762;2023-04-28T01:33:56;5.43;;;4.07;;
27265;SDS011;14766;51.380;13.762;2023-04-28T01:36:24;5.20;;;4.13;;
27265;SDS011;14766;51.380;13.762;2023-04-28T01:38:52;8.85;;;4.47;;
27265;SDS011;14766;51.380;13.762;2023-04-28T01:41:20;7.35;;;4.60;;
27265;SDS011;14766;51.380;13.762;2023-04-28T01:43:48;8.65;;;4.30;;
27265;SDS011;14766;51.380;13.762;2023-04-28T01:46:15;7.60;;;4.05;;
27265;SDS011;14766;51.380;13.762;2023-04-28T01:48:42;6.50;;;4.03;;
27265;SDS011;14766;51.380;13.762;2023-04-28T01:51:09;5.72;;;3.97;;
27265;SDS011;14766;51.380;13.762;2023-04-28T01:53:37;8.00;;;4.22;;
27265;SDS011;14766;51.380;13.762;2023-04-28T01:56:04;5.50;;;4.13;;
27265;SDS011;14766;51.380;13.762;2023-04-28T01:58:33;6.65;;;4.13;;
27265;SDS011;14766;51.380;13.762;2023-04-28T02:01:00;6.15;;;3.75;;
27265;SDS011;14766;51.380;13.762;2023-04-28T02:03:30;8.07;;;4.10;;
27265;SDS011;14766;51.380;13.762;2023-04-28T02:06:01;6.53;;;4.28;;
27265;SDS011;14766;51.380;13.762;2023-04-28T02:08:28;6.07;;;4.25;;
27265;SDS011;14766;51.380;13.762;2023-04-28T02:10:55;5.22;;;3.55;;
27265;SDS011;14766;51.380;13.762;2023-04-28T02:13:24;7.25;;;4.72;;
27265;SDS011;14766;51.380;13.762;2023-04-28T02:15:52;8.93;;;4.70;;
27265;SDS011;14766;51.380;13.762;2023-04-28T02:18:20;6.15;;;4.50;;
27265;SDS011;14766;51.380;13.762;2023-04-28T02:20:47;7.35;;;5.22;;
27265;SDS011;14766;51.380;13.762;2023-04-28T02:23:14;9.20;;;5.10;;
27265;SDS011;14766;51.380;13.762;2023-04-28T02:25:41;6.18;;;4.63;;
27265;SDS011;14766;51.380;13.762;2023-04-28T02:28:11;8.35;;;5.10;;
27265;SDS011;14766;51.380;13.762;2023-04-28T02:30:38;8.25;;;5.05;;
27265;SDS011;14766;51.380;13.762;2023-04-28T02:33:06;7.88;;;4.80;;
27265;SDS011;14766;51.380;13.762;2023-04-28T02:35:33;11.82;;;5.28;;
27265;SDS011;14766;51.380;13.762;2023-04-28T02:38:00;8.15;;;4.90;;
27265;SDS011;14766;51.380;13.762;2023-04-28T02:40:28;8.02;;;5.22;;
27265;SDS011;14766;51.380;13.762;2023-04-28T02:42:56;7.38;;;4.80;;
27265;SDS011;14766;51.380;13.762;2023-04-28T02:45:23;8.50;;;5.70;;
27265;SDS011;14766;51.380;13.762;2023-04-28T02:47:52;8.02;;;5.20;;
27265;SDS011;14766;51.380;13.762;2023-04-28T02:50:21;7.25;;;5.57;;
27265;SDS011;14766;51.380;13.762;2023-04-28T02:52:48;7.82;;;5.25;;
27265;SDS011;14766;51.380;13.762;2023-04-28T02:55:15;7.90;;;5.05;;
27265;SDS011;14766;51.380;13.762;2023-04-28T02:57:51;8.02;;;5.35;;
27265;SDS011;14766;51.380;13.762;2023-04-28T03:00:18;7.88;;;5.13;;
27265;SDS011;14766;51.380;13.762;2023-04-28T03:02:48;8.30;;;5.70;;
27265;SDS011;14766;51.380;13.762;2023-04-28T03:05:15;9.98;;;5.53;;
27265;SDS011;14766;51.380;13.762;2023-04-28T03:07:42;10.45;;;5.97;;
27265;SDS011;14766;51.380;13.762;2023-04-28T03:10:10;11.52;;;6.18;;
27265;SDS011;14766;51.380;13.762;2023-04-28T03:12:37;7.20;;;5.30;;
27265;SDS011;14766;51.380;13.762;2023-04-28T03:15:04;8.05;;;5.68;;
27265;SDS011;14766;51.380;13.762;2023-04-28T03:17:35;9.18;;;5.82;;
27265;SDS011;14766;51.380;13.762;2023-04-28T03:20:04;8.15;;;5.57;;
27265;SDS011;14766;51.380;13.762;2023-04-28T03:22:33;9.20;;;6.20;;
27265;SDS011;14766;51.380;13.762;2023-04-28T03:25:00;8.65;;;6.25;;
27265;SDS011;14766;51.380;13.762;2023-04-28T03:27:31;8.90;;;6.25;;
27265;SDS011;14766;51.380;13.762;2023-04-28T03:30:00;8.13;;;5.88;;
27265;SDS011;14766;51.380;13.762;2023-04-28T03:32:28;8.23;;;6.18;;
27265;SDS011;14766;51.380;13.762;2023-04-28T03:34:55;8.55;;;6.20;;
27265;SDS011;14766;51.380;13.762;2023-04-28T03:37:22;9.60;;;6.63;;
27265;SDS011;14766;51.380;13.762;2023-04-28T03:39:51;9.82;;;6.20;;
27265;SDS011;14766;51.380;13.762;2023-04-28T03:42:18;14.45;;;6.45;;
27265;SDS011;14766;51.380;13.762;2023-04-28T03:44:48;7.20;;;6.13;;
27265;SDS011;14766;51.380;13.762;2023-04-28T03:47:16;9.55;;;6.22;;
27265;SDS011;14766;51.380;13.762;2023-04-28T03:49:43;8.80;;;6.28;;
27265;SDS011;14766;51.380;13.762;2023-04-28T03:52:11;9.10;;;6.32;;
27265;SDS011;14766;51.380;13.762;2023-04-28T03:54:38;8.82;;;5.97;;
27265;SDS011;14766;51.380;13.762;2023-04-28T03:57:05;10.98;;;6.28;;
27265;SDS011;14766;51.380;13.762;2023-04-28T03:59:32;10.23;;;6.43;;
27265;SDS011;14766;51.380;13.762;2023-04-28T04:01:59;8.98;;;6.90;;
27265;SDS011;14766;51.380;13.762;2023-04-28T04:04:26;12.45;;;7.80;;
27265;SDS011;14766;51.380;13.762;2023-04-28T04:06:54;10.40;;;7.38;;
27265;SDS011;14766;51.380;13.762;2023-04-28T04:09:22;12.18;;;7.32;;
27265;SDS011;14766;51.380;13.762;2023-04-28T04:11:49;14.70;;;7.38;;
27265;SDS011;14766;51.380;13.762;2023-04-28T04:14:17;10.07;;;6.72;;
27265;SDS011;14766;51.380;13.762;2023-04-28T04:16:45;13.35;;;7.22;;
27265;SDS011;14766;51.380;13.762;2023-04-28T04:19:13;11.88;;;7.57;;
27265;SDS011;14766;51.380;13.762;2023-04-28T04:21:42;11.10;;;7.88;;
27265;SDS011;14766;51.380;13.762;2023-04-28T04:24:09;12.20;;;8.07;;
27265;SDS011;14766;51.380;13.762;2023-04-28T04:26:36;12.52;;;7.82;;
27265;SDS011;14766;51.380;13.762;2023-04-28T04:29:23;11.48;;;7.80;;
27265;SDS011;14766;51.380;13.762;2023-04-28T04:31:51;10.18;;;7.25;;
27265;SDS011;14766;51.380;13.762;2023-04-28T04:34:18;12.15;;;7.60;;
27265;SDS011;14766;51.380;13.762;2023-04-28T04:36:45;11.05;;;7.88;;
27265;SDS011;14766;51.380;13.762;2023-04-28T04:39:12;10.75;;;6.95;;
27265;SDS011;14766;51.380;13.762;2023-04-28T04:41:39;16.15;;;9.05;;
27265;SDS011;14766;51.380;13.762;2023-04-28T04:44:30;12.35;;;8.38;;
27265;SDS011;14766;51.380;13.762;2023-04-28T04:46:58;15.23;;;8.65;;
27265;SDS011;14766;51.380;13.762;2023-04-28T04:49:26;13.63;;;8.85;;
27265;SDS011;14766;51.380;13.762;2023-04-28T04:51:54;11.85;;;8.00;;
27265;SDS011;14766;51.380;13.762;2023-04-28T04:54:23;12.95;;;8.50;;
27265;SDS011;14766;51.380;13.762;2023-04-28T04:56:51;10.15;;;7.25;;
27265;SDS011;14766;51.380;13.762;2023-04-28T04:59:31;12.30;;;7.95;;
27265;SDS011;14766;51.380;13.762;2023-04-28T05:02:09;13.10;;;8.32;;
27265;SDS011;14766;51.380;13.762;2023-04-28T05:04:37;12.98;;;7.95;;
27265;SDS011;14766;51.380;13.762;2023-04-28T05:07:05;10.93;;;7.90;;
27265;SDS011;14766;51.380;13.762;2023-04-28T05:09:32;12.02;;;7.93;;
27265;SDS011;14766;51.380;13.762;2023-04-28T05:11:59;11.73;;;7.03;;
27265;SDS011;14766;51.380;13.762;2023-04-28T05:14:26;15.55;;;8.10;;
27265;SDS011;14766;51.380;13.762;2023-04-28T05:16:53;15.50;;;7.90;;
27265;SDS011;14766;51.380;13.762;2023-04-28T05:19:24;15.00;;;8.93;;
27265;SDS011;14766;51.380;13.762;2023-04-28T05:21:51;12.57;;;8.68;;
27265;SDS011;14766;51.380;13.762;2023-04-28T05:24:21;11.60;;;7.68;;
27265;SDS011;14766;51.380;13.762;2023-04-28T05:26:52;10.80;;;7.85;;
27265;SDS011;14766;51.380;13.762;2023-04-28T05:29:20;16.95;;;9.85;;
27265;SDS011;14766;51.380;13.762;2023-04-28T05:31:47;14.05;;;8.77;;
27265;SDS011;14766;51.380;13.762;2023-04-28T05:34:14;14.02;;;8.93;;
27265;SDS011;14766;51.380;13.762;2023-04-28T05:36:43;12.63;;;8.27;;
27265;SDS011;14766;51.380;13.762;2023-04-28T05:39:11;11.48;;;8.55;;
27265;SDS011;14766;51.380;13.762;2023-04-28T05:41:40;11.05;;;7.38;;
27265;SDS011;14766;51.380;13.762;2023-04-28T05:44:07;10.60;;;8.00;;
27265;SDS011;14766;51.380;13.762;2023-04-28T05:46:35;13.05;;;8.90;;
27265;SDS011;14766;51.380;13.762;2023-04-28T05:49:04;13.05;;;7.70;;
27265;SDS011;14766;51.380;13.762;2023-04-28T05:51:35;11.25;;;7.00;;
27265;SDS011;14766;51.380;13.762;2023-04-28T05:54:03;11.00;;;7.70;;
27265;SDS011;14766;51.380;13.762;2023-04-28T05:56:35;10.60;;;7.35;;
27265;SDS011;14766;51.380;13.762;2023-04-28T05:59:02;12.55;;;7.63;;
27265;SDS011;14766;51.380;13.762;2023-04-28T06:01:30;11.65;;;7.32;;
27265;SDS011;14766;51.380;13.762;2023-04-28T06:03:57;10.13;;;6.85;;
27265;SDS011;14766;51.380;13.762;2023-04-28T06:06:25;10.80;;;7.57;;
27265;SDS011;14766;51.380;13.762;2023-04-28T06:08:53;11.05;;;6.97;;
27265;SDS011;14766;51.380;13.762;2023-04-28T06:11:20;8.88;;;7.43;;
27265;SDS011;14766;51.380;13.762;2023-04-28T06:13:48;11.23;;;7.60;;
27265;SDS011;14766;51.380;13.762;2023-04-28T06:16:18;10.55;;;7.43;;
27265;SDS011;14766;51.380;13.762;2023-04-28T06:18:48;12.18;;;8.30;;
27265;SDS011;14766;51.380;13.762;2023-04-28T06:21:18;13.35;;;8.68;;
27265;SDS011;14766;51.380;13.762;2023-04-28T06:23:46;9.30;;;7.25;;
27265;SDS011;14766;51.380;13.762;2023-04-28T06:26:14;9.77;;;7.03;;
27265;SDS011;14766;51.380;13.762;2023-04-28T06:28:44;10.90;;;7.40;;
27265;SDS011;14766;51.380;13.762;2023-04-28T06:31:11;8.90;;;7.00;;
27265;SDS011;14766;51.380;13.762;2023-04-28T06:33:38;10.43;;;7.28;;
27265;SDS011;14766;51.380;13.762;2023-04-28T06:36:06;7.95;;;6.90;;
27265;SDS011;14766;51.380;13.762;2023-04-28T06:38:34;8.63;;;6.38;;
27265;SDS011;14766;51.380;13.762;2023-04-28T06:41:01;9.35;;;6.50;;
27265;SDS011;14766;51.380;13.762;2023-04-28T06:43:30;9.15;;;7.30;;
27265;SDS011;14766;51.380;13.762;2023-04-28T06:46:07;9.52;;;6.30;;
27265;SDS011;14766;51.380;13.762;2023-04-28T06:48:36;8.13;;;6.15;;
27265;SDS011;14766;51.380;13.762;2023-04-28T06:51:05;11.70;;;6.88;;
27265;SDS011;14766;51.380;13.762;2023-04-28T06:53:33;8.77;;;6.82;;
27265;SDS011;14766;51.380;13.762;2023-04-28T06:56:00;8.27;;;6.75;;
27265;SDS011;14766;51.380;13.762;2023-04-28T06:58:28;8.23;;;6.85;;
27265;SDS011;14766;51.380;13.762;2023-04-28T07:00:55;8.82;;;6.30;;
27265;SDS011;14766;51.380;13.762;2023-04-28T07:03:22;8.70;;;6.15;;
27265;SDS011;14766;51.380;13.762;2023-04-28T07:05:49;8.65;;;6.15;;
27265;SDS011;14766;51.380;13.762;2023-04-28T07:08:16;10.43;;;6.18;;
27265;SDS011;14766;51.380;13.762;2023-04-28T07:10:43;7.78;;;5.88;;
27265;SDS011;14766;51.380;13.762;2023-04-28T07:13:12;9.23;;;6.07;;
27265;SDS011;14766;51.380;13.762;2023-04-28T07:15:39;11.23;;;6.38;;
27265;SDS011;14766;51.380;13.762;2023-04-28T07:18:06;11.00;;;6.05;;
27265;SDS011;14766;51.380;13.762;2023-04-28T07:20:33;9.63;;;5.85;;
27265;SDS011;14766;51.380;13.762;2023-04-28T07:23:01;9.15;;;5.18;;
27265;SDS011;14766;51.380;13.762;2023-04-28T07:25:29;6.93;;;5.13;;
27265;SDS011;14766;51.380;13.762;2023-04-28T07:27:57;8.02;;;5.30;;
27265;SDS011;14766;51.380;13.762;2023-04-28T07:30:25;8.38;;;5.35;;
27265;SDS011;14766;51.380;13.762;2023-04-28T07:32:54;7.70;;;5.20;;
27265;SDS011;14766;51.380;13.762;2023-04-28T07:35:21;7.40;;;5.68;;
27265;SDS011;14766;51.380;13.762;2023-04-28T07:37:49;7.07;;;5.43;;
27265;SDS011;14766;51.380;13.762;2023-04-28T07:40:16;6.45;;;4.53;;
27265;SDS011;14766;51.380;13.762;2023-04-28T07:42:44;6.50;;;4.70;;
27265;SDS011;14766;51.380;13.762;2023-04-28T07:45:13;6.07;;;4.47;;
27265;SDS011;14766;51.380;13.762;2023-04-28T07:47:44;10.13;;;6.20;;
27265;SDS011;14766;51.380;13.762;2023-04-28T07:50:11;6.45;;;4.80;;
27265;SDS011;14766;51.380;13.762;2023-04-28T07:52:39;8.93;;;5.40;;
27265;SDS011;14766;51.380;13.762;2023-04-28T07:55:06;6.32;;;5.22;;
27265;SDS011;14766;51.380;13.762;2023-04-28T07:57:33;11.10;;;5.63;;
27265;SDS011;14766;51.380;13.762;2023-04-28T08:00:01;6.40;;;4.47;;
27265;SDS011;14766;51.380;13.762;2023-04-28T08:02:37;5.40;;;3.80;;
27265;SDS011;14766;51.380;13.762;2023-04-28T08:05:06;8.63;;;4.65;;
27265;SDS011;14766;51.380;13.762;2023-04-28T08:07:35;7.13;;;4.80;;
27265;SDS011;14766;51.380;13.762;2023-04-28T08:10:03;11.32;;;5.10;;
27265;SDS011;14766;51.380;13.762;2023-04-28T08:12:32;6.45;;;4.75;;
27265;SDS011;14766;51.380;13.762;2023-04-28T08:15:00;5.60;;;4.28;;
27265;SDS011;14766;51.380;13.762;2023-04-28T08:17:27;7.97;;;3.90;;
27265;SDS011;14766;51.380;13.762;2023-04-28T08:19:54;7.03;;;4.03;;
27265;SDS011;14766;51.380;13.762;2023-04-28T08:22:21;5.97;;;3.42;;
27265;SDS011;14766;51.380;13.762;2023-04-28T08:24:48;5.25;;;3.35;;
27265;SDS011;14766;51.380;13.762;2023-04-28T08:27:15;5.40;;;3.60;;
27265;SDS011;14766;51.380;13.762;2023-04-28T08:29:42;8.57;;;3.95;;
27265;SDS011;14766;51.380;13.762;2023-04-28T08:32:10;7.43;;;3.97;;
27265;SDS011;14766;51.380;13.762;2023-04-28T08:34:38;5.50;;;3.30;;
27265;SDS011;14766;51.380;13.762;2023-04-28T08:37:07;4.90;;;3.70;;
27265;SDS011;14766;51.380;13.762;2023-04-28T08:39:34;5.30;;;3.50;;
27265;SDS011;14766;51.380;13.762;2023-04-28T08:42:04;7.72;;;3.53;;
27265;SDS011;14766;51.380;13.762;2023-04-28T08:44:38;4.90;;;3.13;;
27265;SDS011;14766;51.380;13.762;2023-04-28T08:47:12;5.55;;;3.72;;
27265;SDS011;14766;51.380;13.762;2023-04-28T08:49:39;6.65;;;3.58;;
27265;SDS011;14766;51.380;13.762;2023-04-28T08:52:11;7.07;;;4.07;;
27265;SDS011;14766;51.380;13.762;2023-04-28T08:54:43;6.25;;;3.05;;
27265;SDS011;14766;51.380;13.762;2023-04-28T08:57:15;5.28;;;3.67;;
27265;SDS011;14766;51.380;13.762;2023-04-28T08:59:49;5.93;;;3.50;;
27265;SDS011;14766;51.380;13.762;2023-04-28T09:02:16;6.38;;;3.80;;
27265;SDS011;14766;51.380;13.762;2023-04-28T09:04:47;3.42;;;2.67;;
27265;SDS011;14766;51.380;13.762;2023-04-28T09:07:15;5.72;;;2.97;;
27265;SDS011;14766;51.380;13.762;2023-04-28T09:09:43;3.70;;;2.90;;
27265;SDS011;14766;51.380;13.762;2023-04-28T09:12:11;11.15;;;3.38;;
27265;SDS011;14766;51.380;13.762;2023-04-28T09:14:39;6.90;;;3.80;;
27265;SDS011;14766;51.380;13.762;2023-04-28T09:17:09;5.43;;;3.40;;
27265;SDS011;14766;51.380;13.762;2023-04-28T09:19:38;6.70;;;3.53;;
27265;SDS011;14766;51.380;13.762;2023-04-28T09:22:08;6.03;;;3.85;;
27265;SDS011;14766;51.380;13.762;2023-04-28T09:24:52;4.13;;;3.17;;
27265;SDS011;14766;51.380;13.762;2023-04-28T09:27:25;6.82;;;3.60;;
27265;SDS011;14766;51.380;13.762;2023-04-28T09:29:53;6.38;;;3.30;;
27265;SDS011;14766;51.380;13.762;2023-04-28T09:32:21;6.13;;;3.70;;
27265;SDS011;14766;51.380;13.762;2023-04-28T09:34:51;6.60;;;3.40;;
27265;SDS011;14766;51.380;13.762;2023-04-28T09:37:23;5.07;;;3.20;;
27265;SDS011;14766;51.380;13.762;2023-04-28T09:39:53;6.50;;;4.00;;
27265;SDS011;14766;51.380;13.762;2023-04-28T09:42:33;7.70;;;3.60;;
27265;SDS011;14766;51.380;13.762;2023-04-28T09:45:08;5.75;;;3.50;;
27265;SDS011;14766;51.380;13.762;2023-04-28T09:47:43;8.10;;;4.00;;
27265;SDS011;14766;51.380;13.762;2023-04-28T09:50:14;7.15;;;3.47;;
27265;SDS011;14766;51.380;13.762;2023-04-28T09:52:43;6.18;;;3.70;;
27265;SDS011;14766;51.380;13.762;2023-04-28T09:55:14;7.35;;;3.42;;
27265;SDS011;14766;51.380;13.762;2023-04-28T09:57:41;5.63;;;3.05;;
27265;SDS011;14766;51.380;13.762;2023-04-28T10:00:12;4.82;;;3.25;;
27265;SDS011;14766;51.380;13.762;2023-04-28T10:02:40;6.50;;;3.22;;
27265;SDS011;14766;51.380;13.762;2023-04-28T10:05:29;5.85;;;3.05;;
27265;SDS011;14766;51.380;13.762;2023-04-28T10:08:00;4.57;;;3.05;;
27265;SDS011;14766;51.380;13.762;2023-04-28T10:10:28;4.63;;;2.70;;
27265;SDS011;14766;51.380;13.762;2023-04-28T10:12:55;6.25;;;3.40;;
27265;SDS011;14766;51.380;13.762;2023-04-28T10:15:23;6.82;;;3.38;;
27265;SDS011;14766;51.380;13.762;2023-04-28T10:17:50;5.68;;;2.83;;
27265;SDS011;14766;51.380;13.762;2023-04-28T10:20:18;6.40;;;3.28;;
27265;SDS011;14766;51.380;13.762;2023-04-28T10:25:51;6.20;;;3.58;;
27265;SDS011;14766;51.380;13.762;2023-04-28T10:28:23;4.80;;;3.00;;
27265;SDS011;14766;51.380;13.762;2023-04-28T10:31:08;4.35;;;3.42;;
27265;SDS011;14766;51.380;13.762;2023-04-28T10:33:38;4.43;;;2.95;;
27265;SDS011;14766;51.380;13.762;2023-04-28T10:36:06;4.88;;;3.45;;
27265;SDS011;14766;51.380;13.762;2023-04-28T10:38:34;6.43;;;3.50;;
27265;SDS011;14766;51.380;13.762;2023-04-28T10:41:01;5.00;;;3.00;;
27265;SDS011;14766;51.380;13.762;2023-04-28T10:56:13;6.03;;;2.80;;
27265;SDS011;14766;51.380;13.762;2023-04-28T10:58:42;6.75;;;3.30;;
27265;SDS011;14766;51.380;13.762;2023-04-28T11:06:40;7.43;;;3.60;;
27265;SDS011;14766;51.380;13.762;2023-04-28T11:14:35;6.15;;;3.42;;
27265;SDS011;14766;51.380;13.762;2023-04-28T11:17:06;6.25;;;3.83;;
27265;SDS011;14766;51.380;13.762;2023-04-28T11:19:35;6.88;;;3.83;;
27265;SDS011;14766;51.380;13.762;2023-04-28T11:22:12;5.82;;;3.60;;
27265;SDS011;14766;51.380;13.762;2023-04-28T11:24:39;4.45;;;3.10;;
27265;SDS011;14766;51.380;13.762;2023-04-28T11:27:06;8.70;;;3.95;;
27265;SDS011;14766;51.380;13.762;2023-04-28T11:29:37;5.32;;;3.42;;
27265;SDS011;14766;51.380;13.762;2023-04-28T11:32:06;5.20;;;3.78;;
27265;SDS011;14766;51.380;13.762;2023-04-28T11:34:35;9.30;;;3.70;;
27265;SDS011;14766;51.380;13.762;2023-04-28T11:37:02;7.35;;;3.33;;
27265;SDS011;14766;51.380;13.762;2023-04-28T11:43:51;4.82;;;3.55;;
27265;SDS011;14766;51.380;13.762;2023-04-28T11:46:19;6.45;;;4.00;;
27265;SDS011;14766;51.380;13.762;2023-04-28T11:48:54;5.70;;;4.38;;
27265;SDS011;14766;51.380;13.762;2023-04-28T11:51:34;6.63;;;3.97;;
27265;SDS011;14766;51.380;13.762;2023-04-28T11:54:05;4.47;;;3.57;;
27265;SDS011;14766;51.380;13.762;2023-04-28T11:56:40;5.63;;;3.97;;
27265;SDS011;14766;51.380;13.762;2023-04-28T11:59:08;4.60;;;3.40;;
27265;SDS011;14766;51.380;13.762;2023-04-28T12:01:49;3.88;;;3.25;;
27265;SDS011;14766;51.380;13.762;2023-04-28T12:12:10;6.40;;;3.50;;
27265;SDS011;14766;51.380;13.762;2023-04-28T12:17:29;4.78;;;3.45;;
27265;SDS011;14766;51.380;13.762;2023-04-28T12:20:01;5.03;;;3.50;;
27265;SDS011;14766;51.380;13.762;2023-04-28T12:22:30;5.50;;;4.07;;
27265;SDS011;14766;51.380;13.762;2023-04-28T12:25:09;4.63;;;3.47;;
27265;SDS011;14766;51.380;13.762;2023-04-28T12:27:38;5.10;;;3.65;;
27265;SDS011;14766;51.380;13.762;2023-04-28T12:32:46;5.63;;;3.40;;
27265;SDS011;14766;51.380;13.762;2023-04-28T12:35:13;5.57;;;3.65;;
27265;SDS011;14766;51.380;13.762;2023-04-28T12:37:41;4.65;;;3.78;;
27265;SDS011;14766;51.380;13.762;2023-04-28T12:40:09;6.07;;;3.42;;
27265;SDS011;14766;51.380;13.762;2023-04-28T12:42:36;7.20;;;4.40;;
27265;SDS011;14766;51.380;13.762;2023-04-28T12:45:04;6.68;;;4.25;;
27265;SDS011;14766;51.380;13.762;2023-04-28T12:47:32;6.35;;;4.30;;
27265;SDS011;14766;51.380;13.762;2023-04-28T12:50:01;5.45;;;3.60;;
27265;SDS011;14766;51.380;13.762;2023-04-28T12:52:28;5.50;;;3.90;;
27265;SDS011;14766;51.380;13.762;2023-04-28T12:54:59;6.53;;;3.42;;
27265;SDS011;14766;51.380;13.762;2023-04-28T12:57:26;7.68;;;4.18;;
27265;SDS011;14766;51.380;13.762;2023-04-28T12:59:54;7.55;;;3.80;;
27265;SDS011;14766;51.380;13.762;2023-04-28T13:02:22;5.38;;;3.90;;
27265;SDS011;14766;51.380;13.762;2023-04-28T13:04:52;7.20;;;3.42;;
27265;SDS011;14766;51.380;13.762;2023-04-28T13:07:20;5.63;;;3.63;;
27265;SDS011;14766;51.380;13.762;2023-04-28T13:09:47;3.83;;;2.90;;
27265;SDS011;14766;51.380;13.762;2023-04-28T13:12:14;5.93;;;3.47;;
27265;SDS011;14766;51.380;13.762;2023-04-28T13:14:41;6.45;;;3.58;;
27265;SDS011;14766;51.380;13.762;2023-04-28T13:17:08;6.93;;;4.13;;
27265;SDS011;14766;51.380;13.762;2023-04-28T13:19:38;6.00;;;3.88;;
27265;SDS011;14766;51.380;13.762;2023-04-28T13:22:06;3.70;;;3.30;;
27265;SDS011;14766;51.380;13.762;2023-04-28T13:24:35;5.78;;;3.05;;
27265;SDS011;14766;51.380;13.762;2023-04-28T13:27:03;4.63;;;3.45;;
27265;SDS011;14766;51.380;13.762;2023-04-28T13:29:35;5.97;;;3.92;;
27265;SDS011;14766;51.380;13.762;2023-04-28T13:32:02;4.57;;;3.42;;
27265;SDS011;14766;51.380;13.762;2023-04-28T13:34:31;6.18;;;3.42;;
27265;SDS011;14766;51.380;13.762;2023-04-28T13:36:59;5.32;;;3.40;;
27265;SDS011;14766;51.380;13.762;2023-04-28T13:39:28;5.10;;;3.60;;
27265;SDS011;14766;51.380;13.762;2023-04-28T13:41:57;5.10;;;3.60;;
27265;SDS011;14766;51.380;13.762;2023-04-28T13:44:27;7.05;;;4.05;;
27265;SDS011;14766;51.380;13.762;2023-04-28T13:46:54;6.28;;;3.75;;
27265;SDS011;14766;51.380;13.762;2023-04-28T13:49:21;6.60;;;4.00;;
27265;SDS011;14766;51.380;13.762;2023-04-28T13:51:49;4.97;;;3.53;;
27265;SDS011;14766;51.380;13.762;2023-04-28T13:54:16;4.40;;;3.83;;
27265;SDS011;14766;51.380;13.762;2023-04-28T13:56:44;6.93;;;3.97;;
27265;SDS011;14766;51.380;13.762;2023-04-28T13:59:16;8.18;;;4.38;;
27265;SDS011;14766;51.380;13.762;2023-04-28T14:01:43;9.60;;;5.13;;
27265;SDS011;14766;51.380;13.762;2023-04-28T14:04:10;5.53;;;4.32;;
27265;SDS011;14766;51.380;13.762;2023-04-28T14:06:38;7.25;;;4.60;;
27265;SDS011;14766;51.380;13.762;2023-04-28T14:09:05;5.78;;;3.83;;
27265;SDS011;14766;51.380;13.762;2023-04-28T14:11:32;7.75;;;4.28;;
27265;SDS011;14766;51.380;13.762;2023-04-28T14:13:59;5.20;;;3.63;;
27265;SDS011;14766;51.380;13.762;2023-04-28T14:16:26;4.90;;;3.70;;
27265;SDS011;14766;51.380;13.762;2023-04-28T14:18:54;6.15;;;3.78;;
27265;SDS011;14766;51.380;13.762;2023-04-28T14:21:21;5.22;;;4.03;;
27265;SDS011;14766;51.380;13.762;2023-04-28T14:23:48;4.75;;;3.92;;
27265;SDS011;14766;51.380;13.762;2023-04-28T14:26:15;6.00;;;4.20;;
27265;SDS011;14766;51.380;13.762;2023-04-28T14:28:43;7.75;;;3.65;;
27265;SDS011;14766;51.380;13.762;2023-04-28T14:31:11;5.32;;;3.78;;
27265;SDS011;14766;51.380;13.762;2023-04-28T14:33:38;6.60;;;3.95;;
27265;SDS011;14766;51.380;13.762;2023-04-28T14:36:05;4.85;;;3.92;;
27265;SDS011;14766;51.380;13.762;2023-04-28T14:38:33;5.95;;;4.15;;
27265;SDS011;14766;51.380;13.762;2023-04-28T14:41:00;8.05;;;4.30;;
27265;SDS011;14766;51.380;13.762;2023-04-28T14:43:27;6.75;;;3.83;;
27265;SDS011;14766;51.380;13.762;2023-04-28T14:45:54;6.35;;;3.90;;
27265;SDS011;14766;51.380;13.762;2023-04-28T14:48:21;4.57;;;3.25;;
27265;SDS011;14766;51.380;13.762;2023-04-28T14:50:48;6.25;;;3.47;;
27265;SDS011;14766;51.380;13.762;2023-04-28T14:53:16;4.05;;;3.38;;
27265;SDS011;14766;51.380;13.762;2023-04-28T14:55:44;5.85;;;3.00;;
27265;SDS011;14766;51.380;13.762;2023-04-28T14:58:11;3.92;;;2.83;;
27265;SDS011;14766;51.380;13.762;2023-04-28T15:00:38;3.97;;;3.15;;
27265;SDS011;14766;51.380;13.762;2023-04-28T15:03:05;5.30;;;3.35;;
27265;SDS011;14766;51.380;13.762;2023-04-28T15:05:32;4.43;;;4.00;;
27265;SDS011;14766;51.380;13.762;2023-04-28T15:07:59;6.68;;;3.90;;
27265;SDS011;14766;51.380;13.762;2023-04-28T15:10:27;7.18;;;3.67;;
27265;SDS011;14766;51.380;13.762;2023-04-28T15:13:02;7.28;;;3.92;;
27265;SDS011;14766;51.380;13.762;2023-04-28T15:15:29;6.65;;;3.78;;
27265;SDS011;14766;51.380;13.762;2023-04-28T15:17:57;6.40;;;3.28;;
27265;SDS011;14766;51.380;13.762;2023-04-28T15:20:27;4.32;;;3.47;;
27265;SDS011;14766;51.380;13.762;2023-04-28T15:22:58;4.72;;;3.70;;
27265;SDS011;14766;51.380;13.762;2023-04-28T15:25:26;4.95;;;3.83;;